< < Back
Terminal Aerodrome Forecast


Current Version              Previous Versions:   1  2  3  4  5  6  7  8  9  

Terminal Aerodrome Forecast

359
FTUS42 KCHS 141134
TAFCHS
TAF
KCHS 141134Z 1412/1512 04011G16KT P6SM FEW250
     FM141400 05010KT P6SM SCT050 BKN250
     FM142200 06009KT P6SM SCT025 BKN035
     FM150600 05006KT P6SM SCT012 OVC020=

Latest METAR

192
SAUS80 KWBC 141200
MTRCHS
METAR KCHS 141156Z 04011KT 10SM CLR M02/M14 A3047 RMK AO2 SLP317
T10221144 10011 21022 53020 $


USA.gov is the U.S. government's official web portal to all federal, state and local government web resources and services.